sensor_id;sensor_type;location;lat;lon;timestamp;temperature;humidity
16160;DHT22;8185;57.818;15.224;2023-08-07T00:02:15;15.70;99.90
16160;DHT22;8185;57.818;15.224;2023-08-07T00:04:42;15.70;99.90
16160;DHT22;8185;57.818;15.224;2023-08-07T00:07:09;15.70;99.90
16160;DHT22;8185;57.818;15.224;2023-08-07T00:09:38;15.90;99.90
16160;DHT22;8185;57.818;15.224;2023-08-07T00:12:05;15.90;99.90
16160;DHT22;8185;57.818;15.224;2023-08-07T00:14:32;16.00;99.90
16160;DHT22;8185;57.818;15.224;2023-08-07T00:17:00;16.10;99.90
16160;DHT22;8185;57.818;15.224;2023-08-07T00:19:27;16.10;99.90
16160;DHT22;8185;57.818;15.224;2023-08-07T00:21:54;16.20;99.90
16160;DHT22;8185;57.818;15.224;2023-08-07T00:24:21;16.20;99.90
16160;DHT22;8185;57.818;15.224;2023-08-07T00:26:50;16.20;99.90
16160;DHT22;8185;57.818;15.224;2023-08-07T00:29:17;16.30;99.90
16160;DHT22;8185;57.818;15.224;2023-08-07T00:31:44;16.30;99.90
16160;DHT22;8185;57.818;15.224;2023-08-07T00:34:11;16.40;99.90
16160;DHT22;8185;57.818;15.224;2023-08-07T00:36:39;16.40;99.90
16160;DHT22;8185;57.818;15.224;2023-08-07T00:39:07;16.40;99.90
16160;DHT22;8185;57.818;15.224;2023-08-07T00:41:34;16.50;99.90
16160;DHT22;8185;57.818;15.224;2023-08-07T00:44:03;16.50;99.90
16160;DHT22;8185;57.818;15.224;2023-08-07T00:46:31;16.60;99.90
16160;DHT22;8185;57.818;15.224;2023-08-07T00:48:59;16.50;99.90
16160;DHT22;8185;57.818;15.224;2023-08-07T00:51:26;16.50;99.90
16160;DHT22;8185;57.818;15.224;2023-08-07T00:53:53;16.60;99.90
16160;DHT22;8185;57.818;15.224;2023-08-07T00:56:22;16.60;99.90
16160;DHT22;8185;57.818;15.224;2023-08-07T00:58:50;16.60;99.90
16160;DHT22;8185;57.818;15.224;2023-08-07T01:01:19;16.60;99.90
16160;DHT22;8185;57.818;15.224;2023-08-07T01:03:46;16.70;99.90
16160;DHT22;8185;57.818;15.224;2023-08-07T01:06:13;16.70;99.90
16160;DHT22;8185;57.818;15.224;2023-08-07T01:08:41;16.70;99.90
16160;DHT22;8185;57.818;15.224;2023-08-07T01:11:18;16.70;99.90
16160;DHT22;8185;57.818;15.224;2023-08-07T01:13:54;16.70;99.90
16160;DHT22;8185;57.818;15.224;2023-08-07T01:16:42;16.70;99.90
16160;DHT22;8185;57.818;15.224;2023-08-07T01:19:19;16.80;99.90
16160;DHT22;8185;57.818;15.224;2023-08-07T01:22:04;16.80;99.90
16160;DHT22;8185;57.818;15.224;2023-08-07T01:24:32;16.90;99.90
16160;DHT22;8185;57.818;15.224;2023-08-07T01:27:07;16.90;99.90
16160;DHT22;8185;57.818;15.224;2023-08-07T01:29:44;17.00;99.90
16160;DHT22;8185;57.818;15.224;2023-08-07T01:32:17;17.00;99.90
16160;DHT22;8185;57.818;15.224;2023-08-07T01:34:48;17.00;99.90
16160;DHT22;8185;57.818;15.224;2023-08-07T01:37:19;17.00;99.90
16160;DHT22;8185;57.818;15.224;2023-08-07T01:39:48;17.00;99.90
16160;DHT22;8185;57.818;15.224;2023-08-07T01:42:16;17.10;99.90
16160;DHT22;8185;57.818;15.224;2023-08-07T01:44:44;17.10;99.90
16160;DHT22;8185;57.818;15.224;2023-08-07T01:47:11;17.10;99.90
16160;DHT22;8185;57.818;15.224;2023-08-07T01:49:38;17.10;99.90
16160;DHT22;8185;57.818;15.224;2023-08-07T01:52:07;17.10;99.90
16160;DHT22;8185;57.818;15.224;2023-08-07T01:54:36;17.20;99.90
16160;DHT22;8185;57.818;15.224;2023-08-07T01:57:04;17.10;99.90
16160;DHT22;8185;57.818;15.224;2023-08-07T01:59:31;17.10;99.90
16160;DHT22;8185;57.818;15.224;2023-08-07T02:01:58;17.20;99.90
16160;DHT22;8185;57.818;15.224;2023-08-07T02:04:26;17.20;99.90
16160;DHT22;8185;57.818;15.224;2023-08-07T02:06:53;17.20;99.90
16160;DHT22;8185;57.818;15.224;2023-08-07T02:09:20;17.20;99.90
16160;DHT22;8185;57.818;15.224;2023-08-07T02:11:49;17.20;99.90
16160;DHT22;8185;57.818;15.224;2023-08-07T02:14:16;17.20;99.90
16160;DHT22;8185;57.818;15.224;2023-08-07T02:16:43;17.20;99.90
16160;DHT22;8185;57.818;15.224;2023-08-07T02:19:11;17.20;99.90
16160;DHT22;8185;57.818;15.224;2023-08-07T02:21:38;17.20;99.90
16160;DHT22;8185;57.818;15.224;2023-08-07T02:24:05;17.20;99.90
16160;DHT22;8185;57.818;15.224;2023-08-07T02:26:32;17.20;99.90
16160;DHT22;8185;57.818;15.224;2023-08-07T02:29:01;17.20;99.90
16160;DHT22;8185;57.818;15.224;2023-08-07T02:31:29;17.30;99.90
16160;DHT22;8185;57.818;15.224;2023-08-07T02:33:57;17.30;99.90
16160;DHT22;8185;57.818;15.224;2023-08-07T02:36:24;17.20;99.90
16160;DHT22;8185;57.818;15.224;2023-08-07T02:38:51;17.30;99.90
16160;DHT22;8185;57.818;15.224;2023-08-07T02:41:18;17.30;99.90
16160;DHT22;8185;57.818;15.224;2023-08-07T02:43:45;17.30;99.90
16160;DHT22;8185;57.818;15.224;2023-08-07T02:46:14;17.30;99.90
16160;DHT22;8185;57.818;15.224;2023-08-07T02:48:43;17.30;99.90
16160;DHT22;8185;57.818;15.224;2023-08-07T02:51:11;17.40;99.90
16160;DHT22;8185;57.818;15.224;2023-08-07T02:53:38;17.40;99.90
16160;DHT22;8185;57.818;15.224;2023-08-07T02:56:05;17.40;99.90
16160;DHT22;8185;57.818;15.224;2023-08-07T02:58:32;17.40;99.90
16160;DHT22;8185;57.818;15.224;2023-08-07T03:01:03;17.40;99.90
16160;DHT22;8185;57.818;15.224;2023-08-07T03:03:33;17.40;99.90
16160;DHT22;8185;57.818;15.224;2023-08-07T03:06:00;17.40;99.90
16160;DHT22;8185;57.818;15.224;2023-08-07T03:08:28;17.40;99.90
16160;DHT22;8185;57.818;15.224;2023-08-07T03:10:57;17.40;99.90
16160;DHT22;8185;57.818;15.224;2023-08-07T03:13:25;17.50;99.90
16160;DHT22;8185;57.818;15.224;2023-08-07T03:15:59;17.50;99.90
16160;DHT22;8185;57.818;15.224;2023-08-07T03:18:26;17.50;99.90
16160;DHT22;8185;57.818;15.224;2023-08-07T03:20:55;17.50;99.90
16160;DHT22;8185;57.818;15.224;2023-08-07T03:23:22;17.50;99.90
16160;DHT22;8185;57.818;15.224;2023-08-07T03:25:49;17.50;99.90
16160;DHT22;8185;57.818;15.224;2023-08-07T03:28:17;17.60;99.90
16160;DHT22;8185;57.818;15.224;2023-08-07T03:30:44;17.60;99.90
16160;DHT22;8185;57.818;15.224;2023-08-07T03:33:11;17.50;99.90
16160;DHT22;8185;57.818;15.224;2023-08-07T03:35:38;17.60;99.90
16160;DHT22;8185;57.818;15.224;2023-08-07T03:38:08;17.60;99.90
16160;DHT22;8185;57.818;15.224;2023-08-07T03:40:35;17.60;99.90
16160;DHT22;8185;57.818;15.224;2023-08-07T03:43:02;17.60;99.90
16160;DHT22;8185;57.818;15.224;2023-08-07T03:45:29;17.60;99.90
16160;DHT22;8185;57.818;15.224;2023-08-07T03:47:56;17.60;99.90
16160;DHT22;8185;57.818;15.224;2023-08-07T03:50:24;17.60;99.90
16160;DHT22;8185;57.818;15.224;2023-08-07T03:52:51;17.60;99.90
16160;DHT22;8185;57.818;15.224;2023-08-07T03:55:19;17.60;99.90
16160;DHT22;8185;57.818;15.224;2023-08-07T03:57:47;17.70;99.90
16160;DHT22;8185;57.818;15.224;2023-08-07T04:00:14;17.70;99.90
16160;DHT22;8185;57.818;15.224;2023-08-07T04:02:41;17.70;99.90
16160;DHT22;8185;57.818;15.224;2023-08-07T04:05:09;17.70;99.90
16160;DHT22;8185;57.818;15.224;2023-08-07T04:07:36;17.70;99.90
16160;DHT22;8185;57.818;15.224;2023-08-07T04:10:04;17.70;99.90
16160;DHT22;8185;57.818;15.224;2023-08-07T04:12:33;17.70;99.90
16160;DHT22;8185;57.818;15.224;2023-08-07T04:15:00;17.80;99.90
16160;DHT22;8185;57.818;15.224;2023-08-07T04:17:28;17.80;99.90
16160;DHT22;8185;57.818;15.224;2023-08-07T04:19:55;17.80;99.90
16160;DHT22;8185;57.818;15.224;2023-08-07T04:22:22;17.80;99.90
16160;DHT22;8185;57.818;15.224;2023-08-07T04:24:49;17.80;99.90
16160;DHT22;8185;57.818;15.224;2023-08-07T04:27:16;17.80;99.90
16160;DHT22;8185;57.818;15.224;2023-08-07T04:29:45;17.80;99.90
16160;DHT22;8185;57.818;15.224;2023-08-07T04:32:12;17.80;99.90
16160;DHT22;8185;57.818;15.224;2023-08-07T04:34:40;17.90;99.90
16160;DHT22;8185;57.818;15.224;2023-08-07T04:37:07;17.90;99.90
16160;DHT22;8185;57.818;15.224;2023-08-07T04:39:34;17.90;99.90
16160;DHT22;8185;57.818;15.224;2023-08-07T04:42:02;17.90;99.90
16160;DHT22;8185;57.818;15.224;2023-08-07T04:44:30;17.90;99.90
16160;DHT22;8185;57.818;15.224;2023-08-07T04:46:59;17.90;99.90
16160;DHT22;8185;57.818;15.224;2023-08-07T04:49:26;17.90;99.90
16160;DHT22;8185;57.818;15.224;2023-08-07T04:51:53;17.90;99.90
16160;DHT22;8185;57.818;15.224;2023-08-07T04:54:21;17.90;99.90
16160;DHT22;8185;57.818;15.224;2023-08-07T04:56:48;17.90;99.90
16160;DHT22;8185;57.818;15.224;2023-08-07T04:59:15;17.90;99.90
16160;DHT22;8185;57.818;15.224;2023-08-07T05:01:42;17.90;99.90
16160;DHT22;8185;57.818;15.224;2023-08-07T05:04:11;17.90;99.90
16160;DHT22;8185;57.818;15.224;2023-08-07T05:06:38;17.90;99.90
16160;DHT22;8185;57.818;15.224;2023-08-07T05:09:06;17.90;99.90
16160;DHT22;8185;57.818;15.224;2023-08-07T05:11:33;17.90;99.90
16160;DHT22;8185;57.818;15.224;2023-08-07T05:14:00;17.90;99.90
16160;DHT22;8185;57.818;15.224;2023-08-07T05:16:28;17.90;99.90
16160;DHT22;8185;57.818;15.224;2023-08-07T05:18:55;17.90;99.90
16160;DHT22;8185;57.818;15.224;2023-08-07T05:21:23;17.90;99.90
16160;DHT22;8185;57.818;15.224;2023-08-07T05:23:51;17.90;99.90
16160;DHT22;8185;57.818;15.224;2023-08-07T05:26:21;17.90;99.90
16160;DHT22;8185;57.818;15.224;2023-08-07T05:28:48;17.90;99.90
16160;DHT22;8185;57.818;15.224;2023-08-07T05:31:15;17.90;99.90
16160;DHT22;8185;57.818;15.224;2023-08-07T05:33:42;17.90;99.90
16160;DHT22;8185;57.818;15.224;2023-08-07T05:36:09;17.90;99.90
16160;DHT22;8185;57.818;15.224;2023-08-07T05:38:38;17.90;99.90
16160;DHT22;8185;57.818;15.224;2023-08-07T05:41:05;17.90;99.90
16160;DHT22;8185;57.818;15.224;2023-08-07T05:43:32;17.90;99.90
16160;DHT22;8185;57.818;15.224;2023-08-07T05:45:59;17.90;99.90
16160;DHT22;8185;57.818;15.224;2023-08-07T05:48:27;17.90;99.90
16160;DHT22;8185;57.818;15.224;2023-08-07T05:50:54;17.90;99.90
16160;DHT22;8185;57.818;15.224;2023-08-07T05:53:21;17.90;99.90
16160;DHT22;8185;57.818;15.224;2023-08-07T05:55:50;17.90;99.90
16160;DHT22;8185;57.818;15.224;2023-08-07T05:58:17;17.90;99.90
16160;DHT22;8185;57.818;15.224;2023-08-07T06:00:45;17.90;99.90
16160;DHT22;8185;57.818;15.224;2023-08-07T06:03:12;17.90;99.90
16160;DHT22;8185;57.818;15.224;2023-08-07T06:05:39;17.90;99.90
16160;DHT22;8185;57.818;15.224;2023-08-07T06:08:06;17.90;99.90
16160;DHT22;8185;57.818;15.224;2023-08-07T06:10:34;17.90;99.90
16160;DHT22;8185;57.818;15.224;2023-08-07T06:13:03;17.90;99.90
16160;DHT22;8185;57.818;15.224;2023-08-07T06:15:32;17.90;99.90
16160;DHT22;8185;57.818;15.224;2023-08-07T06:18:00;17.90;99.90
16160;DHT22;8185;57.818;15.224;2023-08-07T06:20:27;17.90;99.90
16160;DHT22;8185;57.818;15.224;2023-08-07T06:22:54;17.90;99.90
16160;DHT22;8185;57.818;15.224;2023-08-07T06:25:22;17.90;99.90
16160;DHT22;8185;57.818;15.224;2023-08-07T06:27:50;18.00;99.90
16160;DHT22;8185;57.818;15.224;2023-08-07T06:30:19;18.00;99.90
16160;DHT22;8185;57.818;15.224;2023-08-07T06:32:46;18.00;99.90
16160;DHT22;8185;57.818;15.224;2023-08-07T06:35:14;18.00;99.90
16160;DHT22;8185;57.818;15.224;2023-08-07T06:37:41;18.00;99.90
16160;DHT22;8185;57.818;15.224;2023-08-07T06:40:10;18.00;99.90
16160;DHT22;8185;57.818;15.224;2023-08-07T06:42:37;18.10;99.90
16160;DHT22;8185;57.818;15.224;2023-08-07T06:45:05;18.10;99.90
16160;DHT22;8185;57.818;15.224;2023-08-07T06:47:34;18.20;99.90
16160;DHT22;8185;57.818;15.224;2023-08-07T06:50:01;18.10;99.90
16160;DHT22;8185;57.818;15.224;2023-08-07T06:52:28;18.20;99.90
16160;DHT22;8185;57.818;15.224;2023-08-07T06:54:56;18.20;99.90
16160;DHT22;8185;57.818;15.224;2023-08-07T06:57:23;18.20;99.90
16160;DHT22;8185;57.818;15.224;2023-08-07T06:59:50;18.20;99.90
16160;DHT22;8185;57.818;15.224;2023-08-07T07:02:17;18.30;99.90
16160;DHT22;8185;57.818;15.224;2023-08-07T07:04:46;18.30;99.90
16160;DHT22;8185;57.818;15.224;2023-08-07T07:07:13;18.30;99.90
16160;DHT22;8185;57.818;15.224;2023-08-07T07:09:40;18.30;99.90
16160;DHT22;8185;57.818;15.224;2023-08-07T07:12:08;18.40;99.90
16160;DHT22;8185;57.818;15.224;2023-08-07T07:14:35;18.50;99.90
16160;DHT22;8185;57.818;15.224;2023-08-07T07:17:03;18.50;99.90
16160;DHT22;8185;57.818;15.224;2023-08-07T07:19:30;18.50;99.90
16160;DHT22;8185;57.818;15.224;2023-08-07T07:21:59;18.40;99.90
16160;DHT22;8185;57.818;15.224;2023-08-07T07:24:26;18.40;99.90
16160;DHT22;8185;57.818;15.224;2023-08-07T07:26:53;18.40;99.90
16160;DHT22;8185;57.818;15.224;2023-08-07T07:29:20;18.40;99.90
16160;DHT22;8185;57.818;15.224;2023-08-07T07:31:49;18.50;99.90
16160;DHT22;8185;57.818;15.224;2023-08-07T07:34:16;18.50;99.90
16160;DHT22;8185;57.818;15.224;2023-08-07T07:36:43;18.70;99.90
16160;DHT22;8185;57.818;15.224;2023-08-07T07:39:12;18.70;99.90
16160;DHT22;8185;57.818;15.224;2023-08-07T07:41:39;18.80;99.90
16160;DHT22;8185;57.818;15.224;2023-08-07T07:44:06;18.70;99.90
16160;DHT22;8185;57.818;15.224;2023-08-07T07:46:34;18.60;99.90
16160;DHT22;8185;57.818;15.224;2023-08-07T07:49:01;18.60;99.90
16160;DHT22;8185;57.818;15.224;2023-08-07T07:51:29;18.60;99.90
16160;DHT22;8185;57.818;15.224;2023-08-07T07:53:57;18.60;99.90
16160;DHT22;8185;57.818;15.224;2023-08-07T07:56:25;18.70;99.90
16160;DHT22;8185;57.818;15.224;2023-08-07T07:58:52;18.60;99.90
16160;DHT22;8185;57.818;15.224;2023-08-07T08:01:19;18.60;99.90
16160;DHT22;8185;57.818;15.224;2023-08-07T08:03:46;18.50;99.90
16160;DHT22;8185;57.818;15.224;2023-08-07T08:06:13;18.50;99.90
16160;DHT22;8185;57.818;15.224;2023-08-07T08:08:41;18.50;99.90
16160;DHT22;8185;57.818;15.224;2023-08-07T08:11:09;18.50;99.90
16160;DHT22;8185;57.818;15.224;2023-08-07T08:13:37;18.60;99.90
16160;DHT22;8185;57.818;15.224;2023-08-07T08:16:07;18.60;99.90
16160;DHT22;8185;57.818;15.224;2023-08-07T08:18:34;18.80;99.90
16160;DHT22;8185;57.818;15.224;2023-08-07T08:21:01;18.80;99.90
16160;DHT22;8185;57.818;15.224;2023-08-07T08:23:29;19.00;99.90
16160;DHT22;8185;57.818;15.224;2023-08-07T08:25:56;19.10;99.90
16160;DHT22;8185;57.818;15.224;2023-08-07T08:28:23;19.20;99.90
16160;DHT22;8185;57.818;15.224;2023-08-07T08:30:52;19.10;99.90
16160;DHT22;8185;57.818;15.224;2023-08-07T08:33:19;19.10;99.90
16160;DHT22;8185;57.818;15.224;2023-08-07T08:35:46;19.10;99.90
16160;DHT22;8185;57.818;15.224;2023-08-07T08:38:14;19.10;99.90
16160;DHT22;8185;57.818;15.224;2023-08-07T08:40:42;19.00;99.90
16160;DHT22;8185;57.818;15.224;2023-08-07T08:43:12;19.10;99.90
16160;DHT22;8185;57.818;15.224;2023-08-07T08:45:40;19.20;99.90
16160;DHT22;8185;57.818;15.224;2023-08-07T08:48:13;19.10;99.90
16160;DHT22;8185;57.818;15.224;2023-08-07T08:50:44;19.00;99.90
16160;DHT22;8185;57.818;15.224;2023-08-07T08:53:12;19.00;99.90
16160;DHT22;8185;57.818;15.224;2023-08-07T08:55:39;19.10;99.90
16160;DHT22;8185;57.818;15.224;2023-08-07T08:58:09;19.10;99.90
16160;DHT22;8185;57.818;15.224;2023-08-07T09:00:36;19.10;99.90
16160;DHT22;8185;57.818;15.224;2023-08-07T09:03:04;19.10;99.90
16160;DHT22;8185;57.818;15.224;2023-08-07T09:05:33;19.00;99.90
16160;DHT22;8185;57.818;15.224;2023-08-07T09:08:02;19.10;99.90
16160;DHT22;8185;57.818;15.224;2023-08-07T09:10:32;19.00;99.90
16160;DHT22;8185;57.818;15.224;2023-08-07T09:13:01;19.00;99.90
16160;DHT22;8185;57.818;15.224;2023-08-07T09:15:32;19.20;99.90
16160;DHT22;8185;57.818;15.224;2023-08-07T09:17:59;19.50;99.90
16160;DHT22;8185;57.818;15.224;2023-08-07T09:20:27;19.90;99.90
16160;DHT22;8185;57.818;15.224;2023-08-07T09:22:56;19.90;99.90
16160;DHT22;8185;57.818;15.224;2023-08-07T09:25:27;19.80;99.90
16160;DHT22;8185;57.818;15.224;2023-08-07T09:27:55;19.60;99.90
16160;DHT22;8185;57.818;15.224;2023-08-07T09:30:26;19.60;99.90
16160;DHT22;8185;57.818;15.224;2023-08-07T09:32:54;19.50;99.90
16160;DHT22;8185;57.818;15.224;2023-08-07T09:35:21;19.50;99.90
16160;DHT22;8185;57.818;15.224;2023-08-07T09:37:48;19.70;99.90
16160;DHT22;8185;57.818;15.224;2023-08-07T09:40:18;19.60;99.90
16160;DHT22;8185;57.818;15.224;2023-08-07T09:42:45;19.70;99.90
16160;DHT22;8185;57.818;15.224;2023-08-07T09:45:21;19.70;99.90
16160;DHT22;8185;57.818;15.224;2023-08-07T09:47:57;19.80;99.90
16160;DHT22;8185;57.818;15.224;2023-08-07T09:50:25;19.90;99.90
16160;DHT22;8185;57.818;15.224;2023-08-07T09:52:53;19.90;99.90
16160;DHT22;8185;57.818;15.224;2023-08-07T09:55:22;20.00;99.90
16160;DHT22;8185;57.818;15.224;2023-08-07T09:57:50;20.00;99.90
16160;DHT22;8185;57.818;15.224;2023-08-07T10:00:18;19.80;99.90
16160;DHT22;8185;57.818;15.224;2023-08-07T10:02:47;19.70;99.90
16160;DHT22;8185;57.818;15.224;2023-08-07T10:05:16;19.80;99.90
16160;DHT22;8185;57.818;15.224;2023-08-07T10:07:43;19.90;99.90
16160;DHT22;8185;57.818;15.224;2023-08-07T10:10:11;20.00;99.90
16160;DHT22;8185;57.818;15.224;2023-08-07T10:12:39;19.80;99.90
16160;DHT22;8185;57.818;15.224;2023-08-07T10:15:12;19.50;99.90
16160;DHT22;8185;57.818;15.224;2023-08-07T10:17:39;19.50;99.90
16160;DHT22;8185;57.818;15.224;2023-08-07T10:20:08;19.70;99.90
16160;DHT22;8185;57.818;15.224;2023-08-07T10:22:38;20.10;99.90
16160;DHT22;8185;57.818;15.224;2023-08-07T10:25:06;20.20;99.90
16160;DHT22;8185;57.818;15.224;2023-08-07T10:27:36;19.70;99.90
16160;DHT22;8185;57.818;15.224;2023-08-07T10:30:07;19.40;99.90
16160;DHT22;8185;57.818;15.224;2023-08-07T10:32:36;19.30;99.90
16160;DHT22;8185;57.818;15.224;2023-08-07T10:35:03;19.40;99.90
16160;DHT22;8185;57.818;15.224;2023-08-07T10:37:41;19.40;99.90
16160;DHT22;8185;57.818;15.224;2023-08-07T10:40:10;19.60;99.90
16160;DHT22;8185;57.818;15.224;2023-08-07T10:42:51;20.30;99.90
16160;DHT22;8185;57.818;15.224;2023-08-07T10:45:22;21.60;99.90
16160;DHT22;8185;57.818;15.224;2023-08-07T10:48:02;21.50;99.90
16160;DHT22;8185;57.818;15.224;2023-08-07T10:50:31;20.90;99.90
16160;DHT22;8185;57.818;15.224;2023-08-07T10:53:00;20.10;99.90
16160;DHT22;8185;57.818;15.224;2023-08-07T10:55:31;19.50;99.90
16160;DHT22;8185;57.818;15.224;2023-08-07T10:58:22;19.30;99.90
16160;DHT22;8185;57.818;15.224;2023-08-07T11:00:52;19.30;99.90
16160;DHT22;8185;57.818;15.224;2023-08-07T11:03:28;19.60;99.90
16160;DHT22;8185;57.818;15.224;2023-08-07T11:05:57;19.60;99.90
16160;DHT22;8185;57.818;15.224;2023-08-07T11:08:25;19.60;99.90
16160;DHT22;8185;57.818;15.224;2023-08-07T11:10:53;19.40;99.90
16160;DHT22;8185;57.818;15.224;2023-08-07T11:13:21;19.30;99.90
16160;DHT22;8185;57.818;15.224;2023-08-07T11:15:50;19.50;99.90
16160;DHT22;8185;57.818;15.224;2023-08-07T11:18:18;20.20;99.90
16160;DHT22;8185;57.818;15.224;2023-08-07T11:20:46;20.20;99.90
16160;DHT22;8185;57.818;15.224;2023-08-07T11:23:14;19.90;99.90
16160;DHT22;8185;57.818;15.224;2023-08-07T11:25:41;20.00;99.90
16160;DHT22;8185;57.818;15.224;2023-08-07T11:28:09;19.80;99.90
16160;DHT22;8185;57.818;15.224;2023-08-07T11:30:36;19.50;99.90
16160;DHT22;8185;57.818;15.224;2023-08-07T11:33:06;19.70;99.90
16160;DHT22;8185;57.818;15.224;2023-08-07T11:35:33;19.60;99.90
16160;DHT22;8185;57.818;15.224;2023-08-07T11:38:00;19.40;99.90
16160;DHT22;8185;57.818;15.224;2023-08-07T11:40:27;18.90;99.90
16160;DHT22;8185;57.818;15.224;2023-08-07T11:42:55;18.70;99.90
16160;DHT22;8185;57.818;15.224;2023-08-07T11:45:22;18.50;99.90
16160;DHT22;8185;57.818;15.224;2023-08-07T11:47:49;18.40;99.90
16160;DHT22;8185;57.818;15.224;2023-08-07T11:50:18;18.20;99.90
16160;DHT22;8185;57.818;15.224;2023-08-07T11:52:46;18.20;99.90
16160;DHT22;8185;57.818;15.224;2023-08-07T11:55:14;18.30;99.90
16160;DHT22;8185;57.818;15.224;2023-08-07T11:57:41;18.50;99.90
16160;DHT22;8185;57.818;15.224;2023-08-07T12:00:11;18.60;99.90
16160;DHT22;8185;57.818;15.224;2023-08-07T12:02:42;19.10;99.90
16160;DHT22;8185;57.818;15.224;2023-08-07T12:05:09;19.70;99.90
16160;DHT22;8185;57.818;15.224;2023-08-07T12:07:39;19.90;99.90
16160;DHT22;8185;57.818;15.224;2023-08-07T12:10:08;19.50;99.90
16160;DHT22;8185;57.818;15.224;2023-08-07T12:12:36;19.30;99.90
16160;DHT22;8185;57.818;15.224;2023-08-07T12:15:06;19.40;99.90
16160;DHT22;8185;57.818;15.224;2023-08-07T12:17:34;19.30;99.90
16160;DHT22;8185;57.818;15.224;2023-08-07T12:20:04;19.10;99.90
16160;DHT22;8185;57.818;15.224;2023-08-07T12:22:34;18.90;99.90
16160;DHT22;8185;57.818;15.224;2023-08-07T12:25:04;18.70;99.90
16160;DHT22;8185;57.818;15.224;2023-08-07T12:27:32;18.70;99.90
16160;DHT22;8185;57.818;15.224;2023-08-07T12:29:59;18.60;99.90
16160;DHT22;8185;57.818;15.224;2023-08-07T12:32:26;18.50;99.90
16160;DHT22;8185;57.818;15.224;2023-08-07T12:34:53;18.40;99.90
16160;DHT22;8185;57.818;15.224;2023-08-07T12:37:20;18.60;99.90
16160;DHT22;8185;57.818;15.224;2023-08-07T12:39:48;18.60;99.90
16160;DHT22;8185;57.818;15.224;2023-08-07T12:42:17;18.80;99.90
16160;DHT22;8185;57.818;15.224;2023-08-07T12:44:44;19.00;99.90
16160;DHT22;8185;57.818;15.224;2023-08-07T12:47:11;19.30;99.90
16160;DHT22;8185;57.818;15.224;2023-08-07T12:49:38;19.60;99.90
16160;DHT22;8185;57.818;15.224;2023-08-07T12:52:06;19.60;99.90
16160;DHT22;8185;57.818;15.224;2023-08-07T12:54:33;19.40;99.90
16160;DHT22;8185;57.818;15.224;2023-08-07T12:57:00;19.30;99.90
16160;DHT22;8185;57.818;15.224;2023-08-07T12:59:28;19.10;99.90
16160;DHT22;8185;57.818;15.224;2023-08-07T13:01:56;18.50;99.90
16160;DHT22;8185;57.818;15.224;2023-08-07T13:04:23;18.20;99.90
16160;DHT22;8185;57.818;15.224;2023-08-07T13:06:51;18.30;99.90
16160;DHT22;8185;57.818;15.224;2023-08-07T13:09:18;18.50;99.90
16160;DHT22;8185;57.818;15.224;2023-08-07T13:11:46;18.50;99.90
16160;DHT22;8185;57.818;15.224;2023-08-07T13:14:13;18.30;99.90
16160;DHT22;8185;57.818;15.224;2023-08-07T13:16:42;18.30;99.90
16160;DHT22;8185;57.818;15.224;2023-08-07T13:19:09;18.40;99.90
16160;DHT22;8185;57.818;15.224;2023-08-07T13:21:36;19.00;99.90
16160;DHT22;8185;57.818;15.224;2023-08-07T13:24:04;19.30;99.90
16160;DHT22;8185;57.818;15.224;2023-08-07T13:26:31;19.40;99.90
16160;DHT22;8185;57.818;15.224;2023-08-07T13:28:59;19.30;99.90
16160;DHT22;8185;57.818;15.224;2023-08-07T13:31:26;18.70;99.90
16160;DHT22;8185;57.818;15.224;2023-08-07T13:33:55;18.90;99.90
16160;DHT22;8185;57.818;15.224;2023-08-07T13:36:22;18.90;99.90
16160;DHT22;8185;57.818;15.224;2023-08-07T13:38:49;20.10;99.90
16160;DHT22;8185;57.818;15.224;2023-08-07T13:41:17;20.10;99.90
16160;DHT22;8185;57.818;15.224;2023-08-07T13:43:44;20.30;99.90
16160;DHT22;8185;57.818;15.224;2023-08-07T13:46:11;20.60;99.90
16160;DHT22;8185;57.818;15.224;2023-08-07T13:48:39;20.50;99.90
16160;DHT22;8185;57.818;15.224;2023-08-07T13:51:07;19.90;99.90
16160;DHT22;8185;57.818;15.224;2023-08-07T13:53:34;19.10;99.90
16160;DHT22;8185;57.818;15.224;2023-08-07T13:56:02;18.70;99.90
16160;DHT22;8185;57.818;15.224;2023-08-07T13:58:29;19.30;99.90
16160;DHT22;8185;57.818;15.224;2023-08-07T14:00:56;20.40;99.90
16160;DHT22;8185;57.818;15.224;2023-08-07T14:03:24;22.30;99.90
16160;DHT22;8185;57.818;15.224;2023-08-07T14:05:51;23.00;99.90
16160;DHT22;8185;57.818;15.224;2023-08-07T14:08:20;22.20;99.90
16160;DHT22;8185;57.818;15.224;2023-08-07T14:10:47;21.60;99.90
16160;DHT22;8185;57.818;15.224;2023-08-07T14:13:14;20.90;99.90
16160;DHT22;8185;57.818;15.224;2023-08-07T14:15:41;22.00;99.90
16160;DHT22;8185;57.818;15.224;2023-08-07T14:18:09;21.80;99.90
16160;DHT22;8185;57.818;15.224;2023-08-07T14:20:37;21.40;99.90
16160;DHT22;8185;57.818;15.224;2023-08-07T14:23:04;20.70;99.90
16160;DHT22;8185;57.818;15.224;2023-08-07T14:25:33;19.80;99.90
16160;DHT22;8185;57.818;15.224;2023-08-07T14:28:00;19.30;99.90
16160;DHT22;8185;57.818;15.224;2023-08-07T14:30:27;19.20;99.90
16160;DHT22;8185;57.818;15.224;2023-08-07T14:32:54;19.40;99.90
16160;DHT22;8185;57.818;15.224;2023-08-07T14:35:21;21.20;99.90
16160;DHT22;8185;57.818;15.224;2023-08-07T14:37:48;22.40;99.90
16160;DHT22;8185;57.818;15.224;2023-08-07T14:40:16;21.80;99.90
16160;DHT22;8185;57.818;15.224;2023-08-07T14:42:45;22.90;99.90
16160;DHT22;8185;57.818;15.224;2023-08-07T14:45:12;24.70;99.90
16160;DHT22;8185;57.818;15.224;2023-08-07T14:47:40;23.30;99.90
16160;DHT22;8185;57.818;15.224;2023-08-07T14:50:08;22.80;99.90
16160;DHT22;8185;57.818;15.224;2023-08-07T14:52:36;22.20;99.90
16160;DHT22;8185;57.818;15.224;2023-08-07T14:55:04;21.60;99.90
16160;DHT22;8185;57.818;15.224;2023-08-07T14:57:31;20.50;99.90
16160;DHT22;8185;57.818;15.224;2023-08-07T15:00:00;19.90;99.90
16160;DHT22;8185;57.818;15.224;2023-08-07T15:02:27;19.70;99.90
16160;DHT22;8185;57.818;15.224;2023-08-07T15:04:54;19.60;99.90
16160;DHT22;8185;57.818;15.224;2023-08-07T15:07:21;19.30;99.90
16160;DHT22;8185;57.818;15.224;2023-08-07T15:09:48;19.00;99.90
16160;DHT22;8185;57.818;15.224;2023-08-07T15:12:16;18.90;99.90
16160;DHT22;8185;57.818;15.224;2023-08-07T15:14:44;18.50;99.90
16160;DHT22;8185;57.818;15.224;2023-08-07T15:17:12;18.40;99.90
16160;DHT22;8185;57.818;15.224;2023-08-07T15:19:39;18.30;99.90
16160;DHT22;8185;57.818;15.224;2023-08-07T15:22:06;18.30;99.90
16160;DHT22;8185;57.818;15.224;2023-08-07T15:24:34;18.30;99.90
16160;DHT22;8185;57.818;15.224;2023-08-07T15:27:01;18.10;99.90
16160;DHT22;8185;57.818;15.224;2023-08-07T15:29:28;18.00;99.90
16160;DHT22;8185;57.818;15.224;2023-08-07T15:31:55;17.90;99.90
16160;DHT22;8185;57.818;15.224;2023-08-07T15:34:24;17.90;99.90
16160;DHT22;8185;57.818;15.224;2023-08-07T15:36:51;18.00;99.90